createdAt,value
2024-02-16T00:01:43.162Z,97.59
2024-02-16T00:04:09.958Z,99.04
2024-02-16T00:06:37.117Z,100.00
2024-02-16T00:09:04.206Z,100.00
2024-02-16T00:11:31.060Z,100.00
2024-02-16T00:13:57.714Z,100.00
2024-02-16T00:16:26.103Z,99.26
2024-02-16T00:18:52.938Z,99.81
2024-02-16T00:21:19.788Z,100.00
2024-02-16T00:23:46.628Z,100.00
2024-02-16T00:26:13.334Z,100.00
2024-02-16T00:28:40.050Z,100.00
2024-02-16T00:31:07.227Z,99.52
2024-02-16T00:33:35.038Z,98.38
2024-02-16T00:36:02.146Z,97.81
2024-02-16T00:38:28.930Z,97.20
2024-02-16T00:40:55.774Z,99.44
2024-02-16T00:43:22.429Z,97.58
2024-02-16T00:45:49.728Z,99.25
2024-02-16T00:48:16.993Z,98.32
2024-02-16T00:50:44.622Z,97.56
2024-02-16T00:53:11.683Z,96.99
2024-02-16T00:55:39.459Z,98.72
2024-02-16T00:58:06.219Z,100.00
2024-02-16T01:00:33.170Z,99.75
2024-02-16T01:02:59.950Z,99.58
2024-02-16T01:05:26.652Z,98.24
2024-02-16T01:07:53.546Z,98.50
2024-02-16T01:10:20.469Z,97.43
2024-02-16T01:12:47.170Z,99.29
2024-02-16T01:15:13.852Z,97.41
2024-02-16T01:17:40.973Z,97.68
2024-02-16T01:20:12.309Z,96.27
2024-02-16T01:22:40.180Z,94.94
2024-02-16T01:25:08.502Z,96.88
2024-02-16T01:27:36.700Z,98.52
2024-02-16T01:30:04.615Z,99.14
2024-02-16T01:32:31.882Z,98.17
2024-02-16T01:34:59.396Z,98.70
2024-02-16T01:37:26.368Z,100.00
2024-02-16T01:39:53.705Z,100.00
2024-02-16T01:42:20.558Z,99.00
2024-02-16T01:44:47.461Z,97.36
2024-02-16T01:47:14.252Z,95.33
2024-02-16T01:49:41.092Z,95.04
2024-02-16T01:52:07.815Z,96.41
2024-02-16T01:54:34.658Z,97.76
2024-02-16T01:57:02.297Z,97.88
2024-02-16T01:59:29.263Z,99.32
2024-02-16T02:01:55.916Z,100.00
2024-02-16T02:04:22.673Z,98.87
2024-02-16T02:06:49.538Z,96.52
2024-02-16T02:09:16.453Z,96.19
2024-02-16T02:11:43.150Z,96.03
2024-02-16T02:14:09.796Z,95.43
2024-02-16T02:16:44.765Z,95.99
2024-02-16T02:19:18.405Z,97.92
2024-02-16T02:21:45.093Z,97.93
2024-02-16T02:24:12.266Z,97.57
2024-02-16T02:26:39.549Z,99.45
2024-02-16T02:29:06.729Z,98.39
2024-02-16T02:31:33.477Z,98.35
2024-02-16T02:34:00.378Z,97.67
2024-02-16T02:36:27.313Z,98.91
2024-02-16T02:38:54.186Z,99.19
2024-02-16T02:41:21.436Z,96.10
2024-02-16T02:43:48.135Z,97.98
2024-02-16T02:46:17.948Z,98.43
2024-02-16T02:48:49.440Z,98.63
2024-02-16T02:51:18.670Z,98.28
2024-02-16T02:53:45.362Z,98.29
2024-02-16T02:56:12.123Z,97.96
2024-02-16T02:58:40.805Z,98.88
2024-02-16T03:01:09.516Z,98.17
2024-02-16T03:03:36.729Z,98.39
2024-02-16T03:06:04.942Z,98.55
2024-02-16T03:08:32.245Z,100.00
2024-02-16T03:11:02.261Z,99.75
2024-02-16T03:13:29.265Z,100.00
2024-02-16T03:15:55.901Z,100.00
2024-02-16T03:18:23.550Z,100.00
2024-02-16T03:20:51.456Z,100.00
2024-02-16T03:23:19.135Z,100.00
2024-02-16T03:25:46.037Z,100.00
2024-02-16T03:28:13.485Z,98.48
2024-02-16T03:30:41.080Z,98.25
2024-02-16T03:33:07.986Z,99.59
2024-02-16T03:35:34.777Z,100.00
2024-02-16T03:38:01.521Z,100.00
2024-02-16T03:40:29.290Z,100.00
2024-02-16T03:42:56.419Z,100.00
2024-02-16T03:45:24.817Z,100.00
2024-02-16T03:47:54.051Z,100.00
2024-02-16T03:50:21.137Z,100.00
2024-02-16T03:52:47.887Z,100.00
2024-02-16T03:55:14.679Z,100.00
2024-02-16T03:57:41.486Z,100.00
2024-02-16T04:00:09.448Z,100.00
2024-02-16T04:02:37.441Z,100.00
2024-02-16T04:05:05.096Z,100.00
2024-02-16T04:07:32.237Z,100.00
2024-02-16T04:09:59.116Z,100.00
2024-02-16T04:12:25.944Z,99.09
2024-02-16T04:14:52.764Z,98.85
2024-02-16T04:17:19.756Z,99.04
2024-02-16T04:19:46.852Z,99.53
2024-02-16T04:22:13.718Z,99.29
2024-02-16T04:24:40.505Z,99.59
2024-02-16T04:27:09.058Z,99.73
2024-02-16T04:29:36.217Z,99.05
2024-02-16T04:32:03.015Z,98.12
2024-02-16T04:34:30.296Z,97.37
2024-02-16T04:36:57.189Z,98.22
2024-02-16T04:39:24.418Z,96.55
2024-02-16T04:41:53.150Z,94.89
2024-02-16T04:44:20.115Z,95.71
2024-02-16T04:46:46.846Z,94.54
2024-02-16T04:49:14.238Z,94.38
2024-02-16T04:51:41.767Z,95.44
2024-02-16T04:54:08.934Z,97.98
2024-02-16T04:56:35.851Z,100.00
2024-02-16T04:59:03.106Z,99.65
2024-02-16T05:01:31.283Z,100.00
2024-02-16T05:03:59.424Z,100.00
2024-02-16T05:06:26.546Z,100.00
2024-02-16T05:08:53.364Z,100.00
2024-02-16T05:11:20.327Z,100.00
2024-02-16T05:13:47.144Z,100.00
2024-02-16T05:16:13.951Z,100.00
2024-02-16T05:18:42.030Z,100.00
2024-02-16T05:21:09.009Z,100.00
2024-02-16T05:23:35.884Z,100.00
2024-02-16T05:26:02.659Z,100.00
2024-02-16T05:28:30.291Z,100.00
2024-02-16T05:30:57.187Z,100.00
2024-02-16T05:33:24.644Z,100.00
2024-02-16T05:35:56.280Z,100.00
2024-02-16T05:38:33.883Z,100.00
2024-02-16T05:41:01.262Z,100.00
2024-02-16T05:43:28.135Z,100.00
2024-02-16T05:45:55.078Z,100.00
2024-02-16T05:48:23.204Z,100.00
2024-02-16T05:50:50.369Z,100.00
2024-02-16T05:53:17.306Z,100.00
2024-02-16T05:55:45.834Z,100.00
2024-02-16T05:58:13.656Z,100.00
2024-02-16T06:00:40.564Z,100.00
2024-02-16T06:03:08.681Z,100.00
2024-02-16T06:05:35.644Z,100.00
2024-02-16T06:08:02.359Z,100.00
2024-02-16T06:10:29.122Z,100.00
2024-02-16T06:12:55.981Z,100.00
2024-02-16T06:15:22.899Z,100.00
2024-02-16T06:17:51.054Z,100.00
2024-02-16T06:20:20.814Z,100.00
2024-02-16T06:22:48.320Z,100.00
2024-02-16T06:25:16.334Z,100.00
2024-02-16T06:27:43.475Z,100.00
2024-02-16T06:30:14.396Z,100.00
2024-02-16T06:32:44.567Z,100.00
2024-02-16T06:35:12.515Z,100.00
2024-02-16T06:37:40.161Z,100.00
2024-02-16T06:40:12.745Z,99.98
2024-02-16T06:42:39.698Z,100.00
2024-02-16T06:45:07.357Z,99.93
2024-02-16T06:47:34.101Z,98.92
2024-02-16T06:50:00.915Z,100.00
2024-02-16T06:52:27.901Z,100.00
2024-02-16T06:54:55.385Z,100.00
2024-02-16T06:57:22.224Z,100.00
2024-02-16T06:59:49.196Z,100.00
2024-02-16T07:02:17.284Z,100.00
2024-02-16T07:04:44.142Z,100.00
2024-02-16T07:07:11.216Z,99.76
2024-02-16T07:09:38.371Z,100.00
2024-02-16T07:12:06.075Z,99.78
2024-02-16T07:14:32.901Z,98.41
2024-02-16T07:16:59.721Z,98.25
2024-02-16T07:19:26.835Z,98.28
2024-02-16T07:21:53.888Z,97.60
2024-02-16T07:24:20.719Z,96.95
2024-02-16T07:26:47.547Z,96.19
2024-02-16T07:29:17.826Z,95.30
2024-02-16T07:31:45.046Z,96.16
2024-02-16T07:34:12.900Z,95.53
2024-02-16T07:36:40.001Z,95.51
2024-02-16T07:39:06.947Z,92.62
2024-02-16T07:41:33.758Z,91.61
2024-02-16T07:44:00.488Z,92.89
2024-02-16T07:46:27.226Z,94.34
2024-02-16T07:48:54.131Z,92.37
2024-02-16T07:51:21.020Z,91.83
2024-02-16T07:53:47.951Z,91.72
2024-02-16T07:56:15.236Z,90.47
2024-02-16T07:58:45.212Z,91.11
2024-02-16T08:01:16.558Z,90.01
2024-02-16T08:03:43.734Z,88.06
2024-02-16T08:06:10.600Z,88.86
2024-02-16T08:08:37.412Z,90.38
2024-02-16T08:11:04.464Z,87.98
2024-02-16T08:13:31.297Z,87.29
2024-02-16T08:15:58.048Z,83.98
2024-02-16T08:18:25.169Z,83.49
2024-02-16T08:20:53.189Z,81.78
2024-02-16T08:23:21.363Z,80.25
2024-02-16T08:25:48.033Z,79.42
2024-02-16T08:28:15.238Z,78.38
2024-02-16T08:30:45.185Z,78.85
2024-02-16T08:33:14.071Z,78.11
2024-02-16T08:35:40.968Z,76.36
2024-02-16T08:38:11.465Z,75.42
2024-02-16T08:40:38.963Z,76.73
2024-02-16T08:43:08.264Z,76.93
2024-02-16T08:45:35.560Z,76.31
2024-02-16T08:48:05.252Z,76.44
2024-02-16T08:50:32.289Z,74.14
2024-02-16T08:52:59.063Z,74.50
2024-02-16T08:55:25.928Z,74.85
2024-02-16T08:57:52.866Z,74.45
2024-02-16T09:00:20.015Z,75.29
2024-02-16T09:02:48.115Z,73.96
2024-02-16T09:05:15.491Z,72.66
2024-02-16T09:07:42.382Z,71.79
2024-02-16T09:10:09.662Z,71.06
2024-02-16T09:12:36.707Z,70.46
2024-02-16T09:15:03.740Z,68.63
2024-02-16T09:17:30.607Z,69.92
2024-02-16T09:19:57.380Z,67.20
2024-02-16T09:22:37.218Z,67.65
2024-02-16T09:25:04.955Z,67.03
2024-02-16T09:27:32.522Z,66.57
2024-02-16T09:29:59.807Z,65.12
2024-02-16T09:32:26.613Z,68.57
2024-02-16T09:34:55.919Z,69.16
2024-02-16T09:37:22.752Z,67.78
2024-02-16T09:39:49.376Z,66.85
2024-02-16T09:42:17.491Z,66.11
2024-02-16T09:44:45.118Z,67.05
2024-02-16T09:47:13.850Z,66.06
2024-02-16T09:49:41.449Z,69.37
2024-02-16T09:52:12.096Z,69.63
2024-02-16T09:54:40.553Z,69.16
2024-02-16T09:57:07.637Z,67.61
2024-02-16T09:59:34.406Z,67.67
2024-02-16T10:02:04.202Z,67.55
2024-02-16T10:04:32.912Z,68.91
2024-02-16T10:07:01.602Z,68.82
2024-02-16T10:09:31.655Z,67.49
2024-02-16T10:11:58.690Z,69.24
2024-02-16T10:14:26.650Z,65.66
2024-02-16T10:17:03.860Z,67.86
2024-02-16T10:19:43.802Z,66.75
2024-02-16T10:22:14.543Z,65.69
2024-02-16T10:24:44.231Z,64.51
2024-02-16T10:27:18.985Z,62.64
2024-02-16T10:29:46.596Z,64.23
2024-02-16T10:32:13.954Z,64.35
2024-02-16T10:34:40.972Z,65.05
2024-02-16T10:37:08.338Z,62.93
2024-02-16T10:39:35.295Z,62.83
2024-02-16T10:42:01.971Z,62.76
2024-02-16T10:44:31.720Z,63.34
2024-02-16T10:46:58.464Z,64.62
2024-02-16T10:49:25.612Z,62.94
2024-02-16T10:51:56.810Z,62.00
2024-02-16T10:54:24.837Z,62.83
2024-02-16T10:56:54.599Z,63.86
2024-02-16T10:59:21.512Z,63.76
2024-02-16T11:01:48.599Z,61.54
2024-02-16T11:04:18.271Z,60.73
2024-02-16T11:07:00.450Z,61.01
2024-02-16T11:09:31.362Z,59.98
2024-02-16T11:12:02.063Z,61.18
2024-02-16T11:14:44.968Z,61.89
2024-02-16T11:17:21.574Z,60.61
2024-02-16T11:19:48.902Z,59.22
2024-02-16T11:22:20.293Z,59.31
2024-02-16T11:24:51.455Z,60.41
2024-02-16T11:27:23.491Z,61.00
2024-02-16T11:29:50.760Z,60.81
2024-02-16T11:32:19.562Z,58.86
2024-02-16T11:34:46.525Z,60.91
2024-02-16T11:37:14.035Z,59.48
2024-02-16T11:39:42.518Z,57.76
2024-02-16T11:42:13.588Z,58.47
2024-02-16T11:44:42.651Z,58.89
2024-02-16T11:47:13.651Z,58.65
2024-02-16T11:49:40.975Z,57.80
2024-02-16T11:52:08.458Z,58.77
2024-02-16T11:54:36.550Z,56.86
2024-02-16T11:57:04.454Z,57.81
2024-02-16T11:59:32.410Z,56.45
2024-02-16T12:01:59.864Z,55.10
2024-02-16T12:04:27.201Z,57.86
2024-02-16T12:07:04.699Z,57.62
2024-02-16T12:09:36.690Z,59.28
2024-02-16T12:12:04.050Z,56.56
2024-02-16T12:14:31.091Z,56.93
2024-02-16T12:16:58.417Z,58.83
2024-02-16T12:19:25.344Z,58.05
2024-02-16T12:21:58.585Z,57.18
2024-02-16T12:24:25.512Z,56.58
2024-02-16T12:26:52.176Z,56.81
2024-02-16T12:29:18.993Z,56.75
2024-02-16T12:31:46.212Z,56.81
2024-02-16T12:34:14.026Z,54.77
2024-02-16T12:36:42.568Z,58.05
2024-02-16T12:39:13.464Z,59.20
2024-02-16T12:41:40.418Z,57.00
2024-02-16T12:44:07.104Z,58.25
2024-02-16T12:46:33.827Z,55.49
2024-02-16T12:49:00.732Z,55.33
2024-02-16T12:51:27.625Z,55.79
2024-02-16T12:53:54.262Z,57.35
2024-02-16T12:56:22.568Z,56.15
2024-02-16T12:58:49.451Z,58.20
2024-02-16T13:01:25.582Z,58.04
2024-02-16T13:03:53.374Z,57.09
2024-02-16T13:06:23.136Z,57.16
2024-02-16T13:08:52.160Z,57.08
2024-02-16T13:11:19.263Z,56.96
2024-02-16T13:17:39.042Z,57.39
2024-02-16T13:20:10.794Z,58.01
2024-02-16T13:22:37.862Z,57.10
2024-02-16T13:25:05.178Z,58.13
2024-02-16T13:27:31.999Z,57.94
2024-02-16T13:29:58.931Z,57.99
2024-02-16T13:32:26.356Z,56.40
2024-02-16T13:34:53.112Z,56.07
2024-02-16T13:37:19.914Z,57.64
2024-02-16T13:39:46.630Z,56.23
2024-02-16T13:42:14.143Z,58.28
2024-02-16T13:44:40.871Z,56.96
2024-02-16T13:47:07.590Z,56.75
2024-02-16T13:49:34.484Z,57.27
2024-02-16T13:52:01.340Z,57.38
2024-02-16T13:54:28.095Z,58.42
2024-02-16T13:56:55.004Z,56.98
2024-02-16T13:59:21.938Z,56.84
2024-02-16T14:01:49.361Z,56.09
2024-02-16T14:04:16.287Z,57.49
2024-02-16T14:06:43.169Z,58.56
2024-02-16T14:09:17.034Z,57.55
2024-02-16T14:11:50.365Z,58.22
2024-02-16T14:14:28.472Z,57.42
2024-02-16T14:16:59.664Z,56.70
2024-02-16T14:19:26.372Z,58.09
2024-02-16T14:21:53.160Z,58.68
2024-02-16T14:24:19.986Z,58.02
2024-02-16T14:26:47.278Z,58.16
2024-02-16T14:29:14.167Z,59.04
2024-02-16T14:31:40.819Z,60.42
2024-02-16T14:34:07.670Z,59.56
2024-02-16T14:36:35.116Z,59.50
2024-02-16T14:39:01.845Z,59.73
2024-02-16T14:41:29.816Z,60.33
2024-02-16T14:43:56.472Z,59.92
2024-02-16T14:46:26.818Z,59.67
2024-02-16T14:48:53.669Z,59.93
2024-02-16T14:51:21.098Z,60.44
2024-02-16T14:53:47.961Z,60.63
2024-02-16T14:56:15.487Z,61.21
2024-02-16T14:58:42.398Z,61.15
2024-02-16T15:01:10.885Z,61.79
2024-02-16T15:03:37.753Z,60.93
2024-02-16T15:06:04.674Z,62.89
2024-02-16T15:08:31.605Z,64.26
2024-02-16T15:10:58.415Z,64.22
2024-02-16T15:13:26.096Z,64.06
2024-02-16T15:15:52.884Z,63.52
2024-02-16T15:18:19.962Z,63.66
2024-02-16T15:20:47.335Z,64.03
2024-02-16T15:23:14.011Z,64.26
2024-02-16T15:25:41.139Z,64.76
2024-02-16T15:28:07.760Z,64.90
2024-02-16T15:30:34.626Z,65.18
2024-02-16T15:33:01.458Z,65.85
2024-02-16T15:35:28.275Z,65.89
2024-02-16T15:37:54.909Z,66.66
2024-02-16T15:40:21.710Z,66.23
2024-02-16T15:43:04.629Z,67.63
2024-02-16T15:45:31.841Z,68.38
2024-02-16T15:47:58.896Z,67.64
2024-02-16T15:50:31.574Z,67.68
2024-02-16T15:52:58.444Z,68.24
2024-02-16T15:55:25.214Z,69.24
2024-02-16T15:57:51.981Z,70.39
2024-02-16T16:00:19.188Z,70.12
2024-02-16T16:02:45.926Z,70.49
2024-02-16T16:05:12.833Z,71.84
2024-02-16T16:07:43.699Z,71.53
2024-02-16T16:10:12.090Z,72.05
2024-02-16T16:12:40.208Z,72.37
2024-02-16T16:15:08.013Z,72.78
2024-02-16T16:17:34.846Z,73.50
2024-02-16T16:20:02.259Z,73.06
2024-02-16T16:22:29.711Z,72.50
2024-02-16T16:24:56.371Z,74.14
2024-02-16T16:27:23.181Z,73.78
2024-02-16T16:29:49.882Z,75.31
2024-02-16T16:32:16.737Z,74.99
2024-02-16T16:34:43.538Z,75.83
2024-02-16T16:37:10.519Z,75.66
2024-02-16T16:39:37.753Z,76.11
2024-02-16T16:42:04.777Z,77.35
2024-02-16T16:44:31.560Z,78.62
2024-02-16T16:46:58.364Z,78.66
2024-02-16T16:49:26.284Z,78.79
2024-02-16T16:51:53.115Z,79.05
2024-02-16T16:54:19.995Z,79.33
2024-02-16T16:56:46.782Z,79.84
2024-02-16T16:59:13.514Z,79.63
2024-02-16T17:01:40.358Z,79.82
2024-02-16T17:04:07.025Z,81.12
2024-02-16T17:06:34.923Z,81.98
2024-02-16T17:09:02.182Z,82.28
2024-02-16T17:11:29.034Z,82.97
2024-02-16T17:13:55.737Z,82.47
2024-02-16T17:16:22.686Z,82.52
2024-02-16T17:18:49.651Z,86.42
2024-02-16T17:21:16.485Z,87.18
2024-02-16T17:23:44.970Z,88.93
2024-02-16T17:26:11.646Z,91.83
2024-02-16T17:28:38.592Z,91.02
2024-02-16T17:31:05.409Z,89.49
2024-02-16T17:33:32.411Z,88.61
2024-02-16T17:35:59.275Z,90.16
2024-02-16T17:38:26.109Z,88.66
2024-02-16T17:40:52.783Z,88.83
2024-02-16T17:43:19.564Z,89.82
2024-02-16T17:45:46.444Z,90.75
2024-02-16T17:48:13.332Z,92.92
2024-02-16T17:50:40.167Z,93.59
2024-02-16T17:53:07.069Z,93.94
2024-02-16T17:55:35.071Z,93.00
2024-02-16T17:58:03.536Z,92.29
2024-02-16T18:00:30.837Z,93.16
2024-02-16T18:02:58.202Z,93.53
2024-02-16T18:05:24.997Z,92.93
2024-02-16T18:07:52.840Z,92.32
2024-02-16T18:10:19.716Z,93.02
2024-02-16T18:12:46.682Z,92.83
2024-02-16T18:15:14.341Z,91.60
2024-02-16T18:17:41.298Z,90.38
2024-02-16T18:20:11.619Z,90.17
2024-02-16T18:22:39.920Z,88.41
2024-02-16T18:25:07.462Z,89.79
2024-02-16T18:27:34.280Z,91.45
2024-02-16T18:30:01.060Z,90.73
2024-02-16T18:32:27.889Z,89.84
2024-02-16T18:34:54.702Z,89.10
2024-02-16T18:37:21.696Z,89.21
2024-02-16T18:39:48.431Z,89.21
2024-02-16T18:42:15.269Z,90.74
2024-02-16T18:44:42.053Z,91.35
2024-02-16T18:47:08.776Z,91.24
2024-02-16T18:49:35.716Z,91.90
2024-02-16T18:52:02.502Z,95.52
2024-02-16T18:54:29.325Z,96.44
2024-02-16T18:56:56.067Z,97.77
2024-02-16T18:59:22.830Z,99.22
2024-02-16T19:01:51.130Z,97.09
2024-02-16T19:04:18.289Z,96.39
2024-02-16T19:06:45.277Z,95.83
2024-02-16T19:09:12.206Z,97.62
2024-02-16T19:11:39.003Z,97.03
2024-02-16T19:14:05.864Z,98.57
2024-02-16T19:16:32.677Z,96.69
2024-02-16T19:18:59.413Z,94.94
2024-02-16T19:21:26.285Z,94.63
2024-02-16T19:23:53.063Z,92.94
2024-02-16T19:26:20.358Z,91.82
2024-02-16T19:28:47.178Z,92.96
2024-02-16T19:31:14.737Z,94.34
2024-02-16T19:33:41.731Z,94.45
2024-02-16T19:36:10.040Z,96.70
2024-02-16T19:38:37.901Z,95.91
2024-02-16T19:41:05.419Z,94.27
2024-02-16T19:43:32.325Z,96.46
2024-02-16T19:45:59.969Z,98.70
2024-02-16T19:48:26.902Z,96.27
2024-02-16T19:50:54.430Z,96.90
2024-02-16T19:53:22.157Z,97.54
2024-02-16T19:55:48.936Z,98.82
2024-02-16T19:58:15.730Z,99.53
2024-02-16T20:00:43.594Z,97.42
2024-02-16T20:03:10.427Z,96.64
2024-02-16T20:05:37.243Z,98.07
2024-02-16T20:08:04.393Z,97.52
2024-02-16T20:10:31.176Z,98.34
2024-02-16T20:12:57.914Z,98.03
2024-02-16T20:15:30.014Z,96.39
2024-02-16T20:17:58.043Z,95.99
2024-02-16T20:20:25.425Z,95.82
2024-02-16T20:22:52.202Z,94.52
2024-02-16T20:25:22.861Z,94.81
2024-02-16T20:27:54.226Z,97.47
2024-02-16T20:30:21.093Z,96.99
2024-02-16T20:32:51.823Z,97.87
2024-02-16T20:35:18.900Z,96.99
2024-02-16T20:37:46.801Z,95.94
2024-02-16T20:40:13.762Z,95.58
2024-02-16T20:42:40.587Z,95.42
2024-02-16T20:45:07.617Z,98.26
2024-02-16T20:47:34.471Z,97.95
2024-02-16T20:50:02.108Z,100.00
2024-02-16T20:52:29.173Z,100.00
2024-02-16T20:54:55.929Z,100.00
2024-02-16T20:57:22.752Z,100.00
2024-02-16T20:59:49.607Z,99.87
2024-02-16T21:02:19.226Z,97.75
2024-02-16T21:04:49.731Z,97.60
2024-02-16T21:07:16.559Z,97.92
2024-02-16T21:09:44.505Z,97.65
2024-02-16T21:12:11.517Z,97.22
2024-02-16T21:14:38.524Z,97.19
2024-02-16T21:17:05.478Z,96.64
2024-02-16T21:19:34.043Z,96.26
2024-02-16T21:22:00.906Z,96.63
2024-02-16T21:24:27.837Z,97.90
2024-02-16T21:26:54.667Z,97.90
2024-02-16T21:29:21.424Z,97.87
2024-02-16T21:31:48.286Z,96.81
2024-02-16T21:34:15.286Z,98.15
2024-02-16T21:36:42.467Z,100.00
2024-02-16T21:39:10.147Z,100.00
2024-02-16T21:41:37.084Z,100.00
2024-02-16T21:44:07.042Z,100.00
2024-02-16T21:46:35.540Z,100.00
2024-02-16T21:49:07.426Z,100.00
2024-02-16T21:51:38.362Z,100.00
2024-02-16T21:54:06.467Z,100.00
2024-02-16T21:56:33.801Z,100.00
2024-02-16T21:59:01.509Z,100.00
2024-02-16T22:01:28.698Z,100.00
2024-02-16T22:03:55.673Z,100.00
2024-02-16T22:06:26.437Z,100.00
2024-02-16T22:08:53.954Z,100.00
2024-02-16T22:11:24.037Z,100.00
2024-02-16T22:13:50.773Z,100.00
2024-02-16T22:16:18.000Z,100.00
2024-02-16T22:18:45.752Z,99.15
2024-02-16T22:21:13.228Z,97.81
2024-02-16T22:23:40.307Z,97.96
2024-02-16T22:26:07.438Z,95.39
2024-02-16T22:28:34.235Z,96.79
2024-02-16T22:31:01.104Z,98.60
2024-02-16T22:33:28.112Z,99.80
2024-02-16T22:35:55.205Z,98.83
2024-02-16T22:38:25.019Z,98.33
2024-02-16T22:40:51.859Z,96.64
2024-02-16T22:43:18.584Z,97.46
2024-02-16T22:45:45.593Z,98.31
2024-02-16T22:48:15.083Z,98.62
2024-02-16T22:50:43.052Z,97.76
2024-02-16T22:53:10.071Z,98.57
2024-02-16T22:55:40.248Z,99.09
2024-02-16T22:58:09.470Z,97.64
2024-02-16T23:00:41.722Z,97.93
2024-02-16T23:03:11.019Z,100.00
2024-02-16T23:05:38.509Z,100.00
2024-02-16T23:08:07.972Z,100.00
2024-02-16T23:10:35.091Z,100.00
2024-02-16T23:13:03.609Z,100.00
2024-02-16T23:15:30.655Z,100.00
2024-02-16T23:17:57.438Z,100.00
2024-02-16T23:20:25.124Z,100.00
2024-02-16T23:23:11.321Z,100.00
2024-02-16T23:25:48.066Z,100.00
2024-02-16T23:28:15.694Z,100.00
2024-02-16T23:30:46.001Z,100.00
2024-02-16T23:33:13.312Z,100.00
2024-02-16T23:35:40.435Z,100.00
2024-02-16T23:38:07.279Z,100.00
2024-02-16T23:40:34.008Z,100.00
2024-02-16T23:43:00.790Z,100.00
2024-02-16T23:45:29.135Z,100.00
2024-02-16T23:47:58.760Z,100.00
2024-02-16T23:50:26.917Z,100.00
2024-02-16T23:52:54.209Z,100.00
2024-02-16T23:55:21.037Z,100.00
2024-02-16T23:57:47.787Z,100.00
